createdAt,value
2023-03-06T00:00:37.984Z,47.32
2023-03-06T00:01:37.944Z,51.72
2023-03-06T00:02:37.990Z,42.23
2023-03-06T00:03:38.102Z,45.78
2023-03-06T00:04:38.439Z,40.40
2023-03-06T00:05:37.963Z,45.87
2023-03-06T00:06:37.895Z,41.80
2023-03-06T00:07:37.889Z,49.81
2023-03-06T00:08:37.884Z,50.94
2023-03-06T00:09:37.917Z,40.58
2023-03-06T00:10:37.888Z,50.65
2023-03-06T00:11:38.477Z,43.72
2023-03-06T00:12:37.894Z,44.99
2023-03-06T00:13:37.901Z,53.40
2023-03-06T00:14:37.954Z,52.34
2023-03-06T00:15:37.937Z,40.53
2023-03-06T00:16:38.066Z,52.87
2023-03-06T00:17:37.844Z,53.23
2023-03-06T00:18:38.452Z,48.38
2023-03-06T00:19:37.806Z,51.67
2023-03-06T00:20:38.487Z,47.61
2023-03-06T00:21:37.878Z,49.12
2023-03-06T00:22:37.883Z,40.47
2023-03-06T00:25:37.291Z,44.53
2023-03-06T00:26:37.284Z,39.56
2023-03-06T00:27:38.358Z,44.58
2023-03-06T00:28:38.369Z,49.71
2023-03-06T00:29:38.350Z,50.46
2023-03-06T00:30:38.362Z,41.95
2023-03-06T00:31:38.343Z,50.63
2023-03-06T00:32:38.415Z,45.32
2023-03-06T00:33:38.307Z,53.48
2023-03-06T00:34:38.311Z,52.59
2023-03-06T00:35:38.321Z,54.13
2023-03-06T00:36:38.285Z,42.57
2023-03-06T00:37:38.282Z,40.97
2023-03-06T00:38:38.280Z,54.07
2023-03-06T00:39:38.312Z,42.10
2023-03-06T00:40:38.262Z,40.47
2023-03-06T00:41:38.256Z,49.52
2023-03-06T00:42:38.269Z,45.27
2023-03-06T00:43:38.252Z,41.68
2023-03-06T00:44:38.231Z,48.63
2023-03-06T00:45:38.227Z,46.53
2023-03-06T00:46:38.211Z,40.72
2023-03-06T00:47:38.197Z,48.35
2023-03-06T00:48:38.187Z,47.14
2023-03-06T00:49:38.208Z,46.89
2023-03-06T00:50:38.270Z,45.28
2023-03-06T00:51:39.037Z,50.48
2023-03-06T00:52:39.130Z,40.25
2023-03-06T00:53:38.201Z,44.81
2023-03-06T00:54:39.143Z,41.09
2023-03-06T00:55:38.200Z,40.08
2023-03-06T00:56:38.121Z,41.74
2023-03-06T00:57:38.128Z,47.97
2023-03-06T00:58:38.118Z,49.44
2023-03-06T00:59:38.093Z,50.45
2023-03-06T01:00:38.106Z,41.54
2023-03-06T01:01:38.094Z,57.46
2023-03-06T01:02:38.078Z,43.02
2023-03-06T01:03:38.075Z,41.37
2023-03-06T01:04:38.056Z,41.02
2023-03-06T01:05:38.042Z,40.63
2023-03-06T01:06:38.043Z,42.42
2023-03-06T01:07:38.033Z,51.65
2023-03-06T01:08:38.028Z,50.53
2023-03-06T01:09:38.027Z,49.38
2023-03-06T01:10:38.012Z,42.23
2023-03-06T01:11:38.002Z,55.53
2023-03-06T01:12:38.004Z,42.40
2023-03-06T01:13:37.983Z,46.23
2023-03-06T01:14:37.976Z,45.17
2023-03-06T01:15:37.971Z,41.85
2023-03-06T01:16:37.994Z,53.34
2023-03-06T01:17:37.958Z,46.20
2023-03-06T01:18:37.953Z,54.46
2023-03-06T01:19:37.945Z,61.43
2023-03-06T01:20:37.945Z,54.02
2023-03-06T01:21:37.945Z,42.37
2023-03-06T01:22:37.943Z,54.59
2023-03-06T01:23:37.916Z,41.77
2023-03-06T01:24:38.670Z,40.56
2023-03-06T01:25:37.889Z,41.20
2023-03-06T01:26:37.877Z,41.47
2023-03-06T01:27:37.877Z,40.86
2023-03-06T01:28:38.580Z,47.46
2023-03-06T01:29:37.867Z,44.58
2023-03-06T01:30:37.853Z,42.97
2023-03-06T01:31:37.882Z,45.40
2023-03-06T01:32:37.898Z,52.07
2023-03-06T01:33:37.816Z,41.28
2023-03-06T01:34:37.827Z,40.27
2023-03-06T01:35:37.840Z,48.96
2023-03-06T01:36:37.812Z,44.68
2023-03-06T01:37:37.811Z,40.31
2023-03-06T01:38:37.820Z,41.65
2023-03-06T01:39:37.777Z,58.83
2023-03-06T01:40:37.773Z,53.37
2023-03-06T01:41:37.761Z,46.33
2023-03-06T01:42:37.781Z,46.84
2023-03-06T01:43:37.758Z,40.48
2023-03-06T01:44:38.646Z,40.08
2023-03-06T01:45:37.794Z,49.77
2023-03-06T01:46:37.738Z,49.48
2023-03-06T01:47:37.725Z,41.13
2023-03-06T01:48:37.722Z,39.90
2023-03-06T01:49:37.722Z,46.44
2023-03-06T01:50:37.708Z,40.06
2023-03-06T01:51:37.743Z,40.15
2023-03-06T01:52:37.707Z,43.70
2023-03-06T01:53:37.676Z,51.82
2023-03-06T01:54:37.660Z,41.91
2023-03-06T01:55:37.666Z,40.63
2023-03-06T01:56:37.669Z,41.22
2023-03-06T01:57:37.651Z,47.60
2023-03-06T01:58:37.636Z,51.17
2023-03-06T01:59:37.691Z,58.08
2023-03-06T02:00:37.618Z,42.32
2023-03-06T02:01:38.615Z,40.33
2023-03-06T02:02:37.665Z,53.74
2023-03-06T02:03:37.612Z,44.87
2023-03-06T02:04:37.648Z,44.33
2023-03-06T02:05:37.606Z,49.55
2023-03-06T02:06:37.568Z,51.79
2023-03-06T02:07:37.578Z,52.32
2023-03-06T02:08:37.564Z,47.39
2023-03-06T02:09:37.554Z,41.39
2023-03-06T02:10:37.692Z,45.70
2023-03-06T02:11:37.592Z,43.18
2023-03-06T02:12:38.190Z,40.62
2023-03-06T02:13:37.517Z,40.67
2023-03-06T02:14:37.514Z,46.30
2023-03-06T02:15:37.499Z,45.10
2023-03-06T02:16:37.539Z,54.80
2023-03-06T02:17:37.493Z,51.24
2023-03-06T02:18:37.473Z,59.62
2023-03-06T02:19:38.176Z,53.82
2023-03-06T02:20:37.465Z,41.97
2023-03-06T02:21:37.451Z,50.12
2023-03-06T02:22:37.445Z,52.07
2023-03-06T02:23:37.447Z,57.05
2023-03-06T02:24:37.444Z,48.61
2023-03-06T02:25:37.430Z,48.04
2023-03-06T02:26:37.421Z,41.22
2023-03-06T02:27:37.415Z,43.74
2023-03-06T02:28:37.387Z,48.88
2023-03-06T02:29:38.401Z,40.42
2023-03-06T02:30:37.479Z,44.36
2023-03-06T02:31:37.389Z,45.82
2023-03-06T02:32:37.466Z,44.61
2023-03-06T02:33:37.376Z,49.03
2023-03-06T02:34:37.390Z,48.45
2023-03-06T02:35:37.376Z,47.48
2023-03-06T02:36:37.365Z,53.92
2023-03-06T02:37:37.336Z,55.23
2023-03-06T02:38:37.333Z,41.66
2023-03-06T02:39:37.313Z,49.06
2023-03-06T02:40:37.314Z,46.26
2023-03-06T02:41:37.348Z,42.47
2023-03-06T02:42:37.297Z,46.85
2023-03-06T02:43:37.282Z,48.71
2023-03-06T02:44:37.307Z,43.73
2023-03-06T02:45:37.295Z,51.68
2023-03-06T02:46:37.278Z,51.52
2023-03-06T02:47:37.254Z,39.78
2023-03-06T02:48:37.252Z,49.63
2023-03-06T02:49:38.186Z,46.84
2023-03-06T02:50:37.236Z,52.82
2023-03-06T02:51:37.224Z,54.96
2023-03-06T02:52:37.211Z,41.56
2023-03-06T02:53:37.215Z,52.38
2023-03-06T02:54:37.214Z,48.14
2023-03-06T02:55:38.186Z,49.88
2023-03-06T02:56:37.180Z,54.44
2023-03-06T02:57:37.212Z,54.83
2023-03-06T02:58:37.184Z,53.77
2023-03-06T02:59:37.165Z,47.06
2023-03-06T03:00:37.161Z,50.41
2023-03-06T03:01:37.179Z,50.08
2023-03-06T03:02:37.145Z,53.42
2023-03-06T03:03:37.123Z,53.14
2023-03-06T03:04:37.159Z,56.19
2023-03-06T03:05:37.116Z,46.38
2023-03-06T03:06:37.111Z,46.35
2023-03-06T03:07:37.115Z,47.00
2023-03-06T03:08:37.098Z,45.70
2023-03-06T03:09:37.134Z,46.94
2023-03-06T03:10:37.082Z,40.32
2023-03-06T03:11:37.068Z,53.38
2023-03-06T03:12:37.060Z,51.38
2023-03-06T03:13:37.048Z,50.74
2023-03-06T03:14:37.057Z,46.70
2023-03-06T03:15:37.042Z,58.31
2023-03-06T03:16:39.092Z,58.97
2023-03-06T03:17:38.037Z,51.89
2023-03-06T03:18:37.015Z,51.79
2023-03-06T03:19:37.024Z,56.44
2023-03-06T03:20:37.007Z,49.26
2023-03-06T03:21:36.992Z,55.41
2023-03-06T03:22:36.980Z,49.92
2023-03-06T03:23:36.977Z,52.55
2023-03-06T03:24:36.989Z,55.85
2023-03-06T03:25:36.968Z,48.53
2023-03-06T03:26:36.963Z,54.70
2023-03-06T03:27:36.953Z,52.67
2023-03-06T03:28:36.994Z,46.05
2023-03-06T03:29:36.935Z,40.59
2023-03-06T03:30:36.918Z,50.78
2023-03-06T03:31:36.921Z,51.82
2023-03-06T03:32:36.931Z,54.75
2023-03-06T03:33:36.923Z,55.11
2023-03-06T03:34:36.881Z,55.96
2023-03-06T03:35:36.986Z,52.13
2023-03-06T03:36:36.866Z,52.20
2023-03-06T03:37:36.862Z,52.90
2023-03-06T03:38:36.877Z,51.21
2023-03-06T03:39:37.698Z,55.42
2023-03-06T03:40:36.848Z,49.74
2023-03-06T03:41:37.626Z,55.09
2023-03-06T03:42:36.839Z,58.25
2023-03-06T03:43:36.819Z,52.86
2023-03-06T03:44:36.812Z,59.32
2023-03-06T03:45:36.817Z,57.22
2023-03-06T03:46:36.846Z,57.30
2023-03-06T03:47:36.787Z,57.80
2023-03-06T03:48:36.784Z,50.89
2023-03-06T03:49:36.804Z,56.50
2023-03-06T03:50:36.763Z,54.82
2023-03-06T03:51:36.766Z,53.99
2023-03-06T03:52:36.737Z,53.58
2023-03-06T03:53:38.710Z,57.12
2023-03-06T03:54:36.725Z,55.43
2023-03-06T03:55:36.732Z,61.09
2023-03-06T03:56:36.712Z,55.40
2023-03-06T03:57:36.721Z,55.23
2023-03-06T03:58:36.703Z,61.36
2023-03-06T03:59:36.705Z,59.70
2023-03-06T04:00:36.683Z,59.87
2023-03-06T04:01:39.139Z,60.30
2023-03-06T04:02:36.659Z,53.67
2023-03-06T04:03:36.667Z,55.05
2023-03-06T04:04:37.649Z,57.24
2023-03-06T04:05:36.635Z,57.31
2023-03-06T04:06:36.624Z,55.29
2023-03-06T04:07:37.627Z,60.99
2023-03-06T04:08:36.618Z,56.73
2023-03-06T04:09:36.611Z,61.99
2023-03-06T04:10:36.612Z,61.64
2023-03-06T04:11:36.594Z,65.02
2023-03-06T04:12:36.598Z,60.36
2023-03-06T04:13:36.573Z,58.77
2023-03-06T04:14:36.566Z,61.04
2023-03-06T04:15:36.566Z,60.61
2023-03-06T04:16:36.592Z,60.63
2023-03-06T04:17:37.182Z,57.77
2023-03-06T04:18:36.546Z,61.85
2023-03-06T04:19:36.532Z,59.60
2023-03-06T04:20:36.540Z,63.54
2023-03-06T04:21:36.515Z,62.57
2023-03-06T04:22:36.513Z,61.27
2023-03-06T04:23:36.502Z,59.33
2023-03-06T04:24:37.195Z,58.41
2023-03-06T04:25:36.492Z,59.49
2023-03-06T04:26:37.128Z,56.21
2023-03-06T04:27:36.473Z,60.77
2023-03-06T04:28:36.472Z,60.62
2023-03-06T04:29:36.488Z,61.13
2023-03-06T04:30:36.455Z,66.27
2023-03-06T04:31:36.514Z,64.12
2023-03-06T04:32:36.458Z,56.82
2023-03-06T04:33:36.434Z,59.69
2023-03-06T04:34:36.423Z,63.33
2023-03-06T04:35:36.489Z,64.16
2023-03-06T04:36:36.439Z,66.92
2023-03-06T04:37:36.399Z,65.32
2023-03-06T04:38:36.420Z,63.88
2023-03-06T04:39:36.382Z,67.88
2023-03-06T04:40:36.388Z,61.99
2023-03-06T04:41:36.403Z,61.34
2023-03-06T04:42:36.359Z,61.30
2023-03-06T04:43:36.360Z,60.22
2023-03-06T04:44:36.328Z,61.61
2023-03-06T04:45:36.412Z,67.32
2023-03-06T04:46:36.334Z,63.70
2023-03-06T04:47:36.309Z,59.54
2023-03-06T04:48:36.308Z,59.38
2023-03-06T04:49:36.306Z,63.44
2023-03-06T04:50:36.299Z,62.48
2023-03-06T04:51:36.305Z,64.46
2023-03-06T04:52:36.298Z,65.09
2023-03-06T04:53:36.261Z,61.47
2023-03-06T04:54:36.258Z,66.50
2023-03-06T04:55:36.264Z,60.98
2023-03-06T04:56:36.251Z,60.73
2023-03-06T04:57:36.245Z,61.80
2023-03-06T04:58:36.237Z,60.34
2023-03-06T04:59:38.844Z,63.44
2023-03-06T05:00:36.215Z,62.63
2023-03-06T05:01:36.219Z,59.50
2023-03-06T05:02:36.216Z,63.43
2023-03-06T05:03:36.183Z,68.23
2023-03-06T05:04:36.188Z,63.69
2023-03-06T05:05:36.169Z,63.34
2023-03-06T05:06:36.163Z,61.30
2023-03-06T05:07:36.151Z,61.34
2023-03-06T05:08:36.146Z,61.94
2023-03-06T05:09:37.190Z,60.47
2023-03-06T05:10:36.118Z,61.90
2023-03-06T05:11:36.121Z,60.38
2023-03-06T05:12:36.115Z,63.83
2023-03-06T05:13:36.105Z,60.56
2023-03-06T05:14:36.099Z,61.37
2023-03-06T05:15:36.086Z,64.62
2023-03-06T05:16:36.203Z,62.69
2023-03-06T05:17:36.082Z,59.42
2023-03-06T05:18:36.071Z,64.92
2023-03-06T05:19:36.056Z,62.29
2023-03-06T05:20:36.055Z,59.36
2023-03-06T05:21:36.035Z,66.26
2023-03-06T05:22:36.039Z,66.78
2023-03-06T05:23:36.024Z,65.82
2023-03-06T05:24:36.013Z,63.31
2023-03-06T05:25:36.013Z,62.96
2023-03-06T05:26:36.005Z,63.98
2023-03-06T05:27:36.005Z,64.34
2023-03-06T05:28:36.007Z,66.66
2023-03-06T05:29:35.972Z,64.12
2023-03-06T05:30:36.966Z,65.25
2023-03-06T05:31:36.018Z,63.05
2023-03-06T05:32:36.124Z,66.36
2023-03-06T05:33:35.945Z,60.34
2023-03-06T05:34:35.942Z,64.21
2023-03-06T05:35:35.952Z,68.42
2023-03-06T05:36:35.919Z,63.74
2023-03-06T05:37:35.942Z,63.17
2023-03-06T05:38:35.918Z,64.16
2023-03-06T05:39:35.896Z,63.69
2023-03-06T05:40:35.887Z,63.78
2023-03-06T05:41:35.916Z,64.82
2023-03-06T05:42:35.873Z,64.00
2023-03-06T05:43:35.902Z,65.63
2023-03-06T05:44:35.878Z,64.99
2023-03-06T05:45:35.890Z,66.15
2023-03-06T05:46:35.848Z,61.50
2023-03-06T05:47:35.839Z,62.58
2023-03-06T05:48:35.849Z,63.70
2023-03-06T05:49:35.822Z,63.61
2023-03-06T05:50:35.824Z,64.38
2023-03-06T05:51:35.820Z,69.23
2023-03-06T05:52:35.803Z,62.50
2023-03-06T05:53:35.783Z,65.75
2023-03-06T05:54:35.786Z,68.55
2023-03-06T05:55:35.775Z,64.60
2023-03-06T05:56:35.777Z,63.82
2023-03-06T05:57:35.751Z,62.14
2023-03-06T05:58:35.751Z,63.81
2023-03-06T05:59:36.296Z,63.25
2023-03-06T06:00:35.733Z,68.66
2023-03-06T06:01:35.733Z,62.54
2023-03-06T06:02:35.759Z,68.03
2023-03-06T06:03:35.739Z,66.02
2023-03-06T06:04:35.700Z,64.80
2023-03-06T06:05:35.696Z,67.43
2023-03-06T06:06:35.818Z,67.44
2023-03-06T06:07:35.828Z,68.42
2023-03-06T06:08:35.682Z,65.00
2023-03-06T06:09:35.648Z,65.03
2023-03-06T06:10:36.098Z,66.94
2023-03-06T06:11:35.645Z,66.17
2023-03-06T06:12:35.655Z,66.02
2023-03-06T06:13:35.637Z,67.21
2023-03-06T06:14:35.650Z,66.09
2023-03-06T06:15:35.621Z,66.08
2023-03-06T06:16:35.613Z,64.93
2023-03-06T06:17:35.608Z,64.57
2023-03-06T06:18:35.592Z,64.61
2023-03-06T06:19:35.659Z,64.11
2023-03-06T06:20:36.134Z,65.08
2023-03-06T06:21:35.554Z,69.43
2023-03-06T06:22:35.645Z,68.63
2023-03-06T06:23:35.590Z,71.58
2023-03-06T06:24:35.550Z,68.60
2023-03-06T06:25:35.535Z,67.18
2023-03-06T06:26:37.144Z,68.73
2023-03-06T06:27:35.524Z,68.50
2023-03-06T06:28:35.505Z,66.50
2023-03-06T06:29:35.501Z,67.15
2023-03-06T06:30:35.633Z,68.22
2023-03-06T06:31:35.608Z,68.65
2023-03-06T06:32:35.518Z,68.99
2023-03-06T06:33:35.545Z,68.89
2023-03-06T06:34:35.475Z,66.39
2023-03-06T06:35:35.627Z,67.52
2023-03-06T06:36:37.136Z,67.69
2023-03-06T06:37:35.646Z,66.62
2023-03-06T06:38:35.611Z,69.48
2023-03-06T06:39:35.421Z,68.29
2023-03-06T06:40:35.415Z,63.84
2023-03-06T06:41:54.989Z,67.28
2023-03-06T06:42:40.097Z,69.10
2023-03-06T06:43:36.398Z,66.33
2023-03-06T06:44:35.439Z,66.63
2023-03-06T06:45:35.505Z,67.20
2023-03-06T06:47:37.488Z,64.15
2023-03-06T06:48:35.359Z,67.14
2023-03-06T06:49:35.408Z,65.16
2023-03-06T06:50:35.416Z,65.92
2023-03-06T06:51:35.327Z,68.41
2023-03-06T06:52:35.428Z,67.93
2023-03-06T06:53:35.320Z,67.83
2023-03-06T06:54:35.408Z,68.12
2023-03-06T06:55:35.324Z,65.24
2023-03-06T06:56:35.317Z,67.12
2023-03-06T06:57:36.164Z,68.28
2023-03-06T06:58:35.273Z,67.17
2023-03-06T06:59:35.262Z,67.30
2023-03-06T07:00:36.245Z,68.06
2023-03-06T07:01:35.323Z,65.88
2023-03-06T07:02:35.242Z,68.01
2023-03-06T07:03:35.276Z,69.16
2023-03-06T07:04:35.351Z,66.84
2023-03-06T07:05:35.239Z,67.60
2023-03-06T07:06:36.196Z,67.72
2023-03-06T07:07:35.226Z,72.32
2023-03-06T07:08:36.594Z,66.96
2023-03-06T07:09:35.182Z,67.31
2023-03-06T07:10:35.180Z,65.75
2023-03-06T07:11:35.180Z,66.26
2023-03-06T07:12:35.387Z,67.55
2023-03-06T07:13:35.148Z,66.19
2023-03-06T07:14:35.135Z,70.67
2023-03-06T07:15:35.159Z,67.60
2023-03-06T07:16:35.165Z,65.63
2023-03-06T07:17:35.126Z,64.78
2023-03-06T07:18:35.148Z,68.50
2023-03-06T07:19:35.129Z,67.60
2023-03-06T07:20:35.094Z,67.06
2023-03-06T07:21:35.098Z,66.18
2023-03-06T07:22:49.965Z,64.28
2023-03-06T07:23:37.099Z,63.80
2023-03-06T07:24:35.080Z,65.94
2023-03-06T07:25:35.174Z,66.12
2023-03-06T07:26:35.110Z,66.79
2023-03-06T07:27:35.211Z,66.31
2023-03-06T07:28:49.799Z,63.09
2023-03-06T07:29:37.029Z,64.50
2023-03-06T07:30:35.062Z,69.73
2023-03-06T07:31:35.887Z,65.02
2023-03-06T07:32:35.108Z,65.49
2023-03-06T07:33:35.104Z,66.78
2023-03-06T07:34:34.994Z,66.37
2023-03-06T07:35:35.170Z,64.66
2023-03-06T07:36:34.997Z,64.42
2023-03-06T07:37:34.964Z,67.54
2023-03-06T07:38:35.042Z,66.65
2023-03-06T07:39:35.654Z,67.44
2023-03-06T07:40:35.133Z,65.33
2023-03-06T07:41:34.968Z,63.90
2023-03-06T07:42:35.767Z,66.51
2023-03-06T07:43:35.005Z,64.97
2023-03-06T07:44:34.980Z,63.88
2023-03-06T07:45:34.938Z,64.14
2023-03-06T07:46:34.967Z,65.34
2023-03-06T07:47:34.935Z,67.86
2023-03-06T07:48:34.999Z,65.60
2023-03-06T07:49:34.970Z,66.14
2023-03-06T07:50:37.636Z,64.59
2023-03-06T07:51:34.930Z,65.13
2023-03-06T07:52:34.919Z,66.09
2023-03-06T07:53:35.031Z,69.40
2023-03-06T07:54:34.945Z,64.01
2023-03-06T07:55:34.842Z,65.32
2023-03-06T07:56:34.863Z,68.72
2023-03-06T07:57:34.833Z,67.29
2023-03-06T07:58:34.934Z,66.00
2023-03-06T07:59:34.821Z,65.18
2023-03-06T08:00:34.885Z,66.55
2023-03-06T08:01:36.695Z,63.48
2023-03-06T08:02:35.661Z,66.92
2023-03-06T08:03:36.847Z,66.86
2023-03-06T08:04:35.617Z,68.98
2023-03-06T08:05:34.811Z,66.17
2023-03-06T08:06:34.741Z,66.50
2023-03-06T08:07:35.757Z,66.25
2023-03-06T08:08:34.725Z,63.42
2023-03-06T08:09:35.363Z,65.85
2023-03-06T08:10:36.121Z,63.31
2023-03-06T08:11:34.703Z,65.39
2023-03-06T08:12:35.309Z,64.66
2023-03-06T08:13:34.677Z,64.47
2023-03-06T08:14:34.730Z,64.29
2023-03-06T08:15:34.761Z,64.87
2023-03-06T08:16:34.750Z,66.49
2023-03-06T08:17:34.684Z,65.08
2023-03-06T08:18:38.191Z,68.73
2023-03-06T08:19:36.154Z,67.27
2023-03-06T08:20:35.217Z,66.39
2023-03-06T08:21:34.622Z,67.63
2023-03-06T08:22:35.149Z,65.99
2023-03-06T08:23:34.616Z,68.29
2023-03-06T08:24:34.692Z,64.51
2023-03-06T08:25:34.646Z,65.75
2023-03-06T08:26:34.645Z,65.27
2023-03-06T08:27:34.634Z,66.38
2023-03-06T08:28:34.570Z,66.83
2023-03-06T08:29:36.153Z,65.48
2023-03-06T08:30:34.723Z,67.17
2023-03-06T08:31:34.684Z,65.64
2023-03-06T08:32:34.631Z,67.16
2023-03-06T08:33:34.561Z,67.23
2023-03-06T08:34:36.110Z,64.66
2023-03-06T08:35:34.561Z,66.31
2023-03-06T08:36:34.533Z,65.00
2023-03-06T08:37:34.530Z,67.11
2023-03-06T08:38:34.509Z,67.36
2023-03-06T08:39:35.222Z,65.41
2023-03-06T08:40:34.652Z,64.04
2023-03-06T08:41:34.523Z,64.61
2023-03-06T08:42:35.118Z,65.04
2023-03-06T08:43:35.178Z,65.58
2023-03-06T08:44:35.675Z,63.45
2023-03-06T08:45:35.279Z,74.36
2023-03-06T08:46:34.478Z,66.04
2023-03-06T08:47:35.259Z,64.94
2023-03-06T08:48:34.419Z,66.35
2023-03-06T08:49:34.412Z,64.32
2023-03-06T08:50:34.398Z,65.38
2023-03-06T08:51:34.380Z,68.48
2023-03-06T08:52:34.393Z,67.73
2023-03-06T08:53:43.103Z,64.72
2023-03-06T08:54:36.374Z,67.24
2023-03-06T08:55:34.346Z,67.91
2023-03-06T08:56:34.488Z,64.58
2023-03-06T08:57:35.269Z,64.95
2023-03-06T08:58:38.224Z,63.23
2023-03-06T08:59:38.315Z,66.68
2023-03-06T09:00:36.252Z,67.18
2023-03-06T09:01:35.246Z,66.64
2023-03-06T09:02:35.150Z,67.03
2023-03-06T09:03:34.302Z,70.30
2023-03-06T09:04:34.287Z,65.02
2023-03-06T09:05:34.396Z,64.66
2023-03-06T09:06:35.166Z,65.51
2023-03-06T09:07:34.260Z,66.45
2023-03-06T09:08:34.313Z,63.33
2023-03-06T09:09:34.288Z,63.79
2023-03-06T09:10:34.265Z,65.50
2023-03-06T09:11:34.346Z,67.23
2023-03-06T09:12:43.889Z,65.16
2023-03-06T09:13:36.248Z,63.02
2023-03-06T09:14:34.202Z,65.17
2023-03-06T09:15:34.204Z,66.43
2023-03-06T09:16:34.231Z,65.03
2023-03-06T09:17:34.204Z,67.00
2023-03-06T09:18:34.239Z,66.39
2023-03-06T09:19:34.181Z,67.34
2023-03-06T09:20:34.154Z,67.26
2023-03-06T09:21:34.141Z,66.87
2023-03-06T09:22:34.135Z,68.79
2023-03-06T09:23:34.135Z,63.06
2023-03-06T09:24:34.148Z,65.41
2023-03-06T09:25:34.320Z,64.85
2023-03-06T09:26:45.484Z,69.43
2023-03-06T09:27:36.673Z,65.25
2023-03-06T09:28:34.667Z,66.28
2023-03-06T09:29:34.739Z,65.97
2023-03-06T09:30:35.299Z,66.19
2023-03-06T09:31:35.095Z,65.94
2023-03-06T09:32:34.165Z,64.10
2023-03-06T09:33:34.067Z,65.07
2023-03-06T09:34:34.041Z,65.43
2023-03-06T09:35:34.073Z,70.58
2023-03-06T09:36:42.899Z,65.86
2023-03-06T09:37:36.021Z,64.34
2023-03-06T09:38:34.014Z,64.93
2023-03-06T09:39:34.668Z,66.57
2023-03-06T09:40:34.016Z,65.81
2023-03-06T09:41:34.664Z,66.53
2023-03-06T09:42:35.274Z,65.18
2023-03-06T09:43:34.008Z,64.66
2023-03-06T09:44:33.982Z,63.75
2023-03-06T09:45:33.959Z,64.89
2023-03-06T09:46:33.969Z,65.69
2023-03-06T09:47:33.939Z,64.76
2023-03-06T09:48:34.684Z,65.18
2023-03-06T09:49:34.703Z,67.27
2023-03-06T09:50:33.938Z,65.21
2023-03-06T09:51:34.692Z,65.22
2023-03-06T09:52:34.009Z,62.01
2023-03-06T09:55:42.568Z,65.68
2023-03-06T09:56:41.898Z,66.80
2023-03-06T09:57:41.872Z,66.94
2023-03-06T09:58:41.861Z,64.57
2023-03-06T09:59:41.856Z,65.42
2023-03-06T10:00:41.848Z,66.39
2023-03-06T10:01:43.069Z,64.42
2023-03-06T10:02:41.933Z,66.99
2023-03-06T10:03:42.669Z,64.79
2023-03-06T10:04:42.276Z,67.41
2023-03-06T10:05:41.807Z,64.90
2023-03-06T10:06:41.786Z,64.95
2023-03-06T10:07:41.876Z,65.77
2023-03-06T10:08:41.776Z,63.64
2023-03-06T10:09:41.837Z,63.95
2023-03-06T10:10:41.747Z,64.02
2023-03-06T10:11:41.756Z,63.67
2023-03-06T10:12:41.745Z,64.26
2023-03-06T10:13:41.732Z,70.93
2023-03-06T10:14:41.729Z,64.85
2023-03-06T10:15:41.787Z,64.97
2023-03-06T10:16:41.749Z,65.41
2023-03-06T10:17:41.715Z,65.79
2023-03-06T10:18:41.694Z,69.25
2023-03-06T10:19:42.208Z,66.29
2023-03-06T10:20:41.735Z,65.55
2023-03-06T10:21:41.762Z,65.75
2023-03-06T10:23:01.238Z,73.57
2023-03-06T10:23:43.660Z,64.51
2023-03-06T10:24:41.637Z,66.42
2023-03-06T10:25:42.209Z,66.68
2023-03-06T10:26:41.751Z,65.48
2023-03-06T10:27:43.647Z,66.52
2023-03-06T10:28:41.630Z,66.33
2023-03-06T10:29:43.674Z,64.78
2023-03-06T10:30:41.601Z,66.34
2023-03-06T10:31:41.607Z,65.24
2023-03-06T10:32:49.571Z,65.68
2023-03-06T10:33:43.582Z,65.51
2023-03-06T10:34:41.563Z,67.15
2023-03-06T10:35:42.179Z,66.39
2023-03-06T10:36:41.568Z,66.73
2023-03-06T10:37:41.572Z,66.85
2023-03-06T10:38:41.532Z,65.06
2023-03-06T10:39:41.521Z,65.03
2023-03-06T10:40:41.532Z,66.79
2023-03-06T10:41:41.521Z,64.40
2023-03-06T10:42:41.496Z,62.83
2023-03-06T10:43:42.509Z,66.91
2023-03-06T10:44:41.512Z,65.00
2023-03-06T10:45:48.967Z,66.52
2023-03-06T10:46:43.634Z,65.86
2023-03-06T10:47:41.533Z,63.68
2023-03-06T10:48:42.338Z,64.29
2023-03-06T10:49:42.529Z,65.73
2023-03-06T10:50:42.131Z,65.62
2023-03-06T10:51:41.462Z,68.51
2023-03-06T10:52:41.437Z,63.83
2023-03-06T10:53:42.171Z,65.16
2023-03-06T10:54:41.415Z,68.02
2023-03-06T10:55:41.433Z,65.85
2023-03-06T10:56:41.404Z,65.11
2023-03-06T10:57:42.218Z,65.81
2023-03-06T10:58:41.397Z,64.33
2023-03-06T10:59:41.398Z,65.73
2023-03-06T11:00:41.464Z,65.21
2023-03-06T11:01:41.459Z,66.02
2023-03-06T11:02:41.732Z,66.30
2023-03-06T11:03:42.218Z,66.54
2023-03-06T11:04:41.468Z,64.57
2023-03-06T11:05:41.390Z,66.63
2023-03-06T11:06:41.329Z,64.57
2023-03-06T11:07:41.312Z,64.15
2023-03-06T11:08:41.318Z,63.42
2023-03-06T11:09:41.329Z,64.73
2023-03-06T11:10:41.292Z,63.52
2023-03-06T11:11:41.296Z,63.16
2023-03-06T11:12:43.107Z,64.72
2023-03-06T11:13:41.293Z,64.77
2023-03-06T11:14:41.319Z,63.11
2023-03-06T11:15:42.295Z,65.70
2023-03-06T11:16:42.093Z,66.73
2023-03-06T11:17:41.403Z,68.24
2023-03-06T11:18:41.312Z,67.14
2023-03-06T11:19:41.210Z,68.88
2023-03-06T11:20:51.092Z,63.98
2023-03-06T11:21:43.204Z,65.94
2023-03-06T11:22:41.376Z,67.07
2023-03-06T11:23:41.193Z,65.67
2023-03-06T11:24:41.216Z,66.51
2023-03-06T11:25:41.167Z,66.87
2023-03-06T11:26:41.180Z,69.06
2023-03-06T11:27:41.163Z,68.18
2023-03-06T11:28:41.132Z,68.14
2023-03-06T11:29:41.734Z,66.45
2023-03-06T11:30:41.142Z,66.31
2023-03-06T11:31:42.626Z,65.01
2023-03-06T11:32:41.388Z,67.38
2023-03-06T11:33:41.146Z,65.93
2023-03-06T11:34:41.098Z,65.92
2023-03-06T11:35:41.102Z,66.29
2023-03-06T11:36:41.092Z,65.37
2023-03-06T11:37:41.132Z,66.13
2023-03-06T11:38:41.060Z,65.09
2023-03-06T11:39:41.076Z,65.98
2023-03-06T11:40:41.618Z,65.64
2023-03-06T11:41:41.104Z,63.71
2023-03-06T11:42:41.021Z,65.54
2023-03-06T11:43:41.031Z,65.15
2023-03-06T11:44:41.134Z,63.04
2023-03-06T11:45:41.023Z,63.71
2023-03-06T11:46:41.042Z,65.45
2023-03-06T11:47:41.002Z,64.47
2023-03-06T11:48:40.988Z,62.32
2023-03-06T11:49:41.003Z,65.46
2023-03-06T11:50:40.981Z,65.66
2023-03-06T11:51:40.954Z,67.04
2023-03-06T11:52:40.941Z,69.01
2023-03-06T11:53:41.022Z,67.17
2023-03-06T11:54:40.982Z,66.45
2023-03-06T11:55:40.949Z,65.93
2023-03-06T11:56:40.913Z,65.91
2023-03-06T11:57:41.644Z,65.91
2023-03-06T11:58:40.931Z,67.10
2023-03-06T11:59:41.023Z,65.53
2023-03-06T12:01:13.668Z,66.07
2023-03-06T12:01:41.769Z,62.81
2023-03-06T12:02:40.879Z,67.28
2023-03-06T12:03:40.864Z,66.64
2023-03-06T12:04:40.858Z,68.32
2023-03-06T12:05:40.896Z,69.22
2023-03-06T12:06:40.836Z,69.40
2023-03-06T12:07:40.858Z,66.41
2023-03-06T12:08:40.821Z,66.99
2023-03-06T12:09:40.814Z,64.99
2023-03-06T12:10:41.752Z,65.69
2023-03-06T12:11:40.813Z,63.21
2023-03-06T12:12:40.789Z,64.90
2023-03-06T12:13:40.818Z,66.46
2023-03-06T12:14:40.786Z,66.20
2023-03-06T12:15:40.796Z,69.06
2023-03-06T12:16:40.812Z,68.26
2023-03-06T12:17:40.741Z,66.68
2023-03-06T12:18:40.735Z,67.33
2023-03-06T12:19:40.725Z,67.76
2023-03-06T12:20:41.672Z,69.06
2023-03-06T12:21:40.714Z,71.68
2023-03-06T12:22:40.705Z,67.83
2023-03-06T12:23:40.692Z,67.63
2023-03-06T12:24:40.696Z,65.55
2023-03-06T12:25:41.229Z,66.48
2023-03-06T12:26:40.680Z,64.57
2023-03-06T12:27:40.704Z,62.49
2023-03-06T12:28:42.175Z,62.27
2023-03-06T12:29:40.772Z,64.61
2023-03-06T12:30:40.699Z,65.43
2023-03-06T12:31:41.632Z,65.90
2023-03-06T12:32:40.691Z,65.78
2023-03-06T12:33:40.642Z,64.31
2023-03-06T12:34:42.244Z,66.12
2023-03-06T12:35:41.272Z,64.07
2023-03-06T12:36:40.604Z,62.87
2023-03-06T12:37:40.597Z,64.57
2023-03-06T12:38:40.572Z,64.74
2023-03-06T12:39:40.589Z,65.27
2023-03-06T12:40:40.565Z,63.96
2023-03-06T12:41:40.550Z,64.26
2023-03-06T12:42:40.548Z,67.73
2023-03-06T12:43:42.256Z,67.65
2023-03-06T12:44:40.525Z,63.14
2023-03-06T12:45:40.591Z,64.14
2023-03-06T12:46:40.510Z,63.76
2023-03-06T12:47:40.507Z,63.27
2023-03-06T12:48:40.511Z,64.68
2023-03-06T12:49:40.483Z,62.55
2023-03-06T12:50:40.478Z,64.79
2023-03-06T12:51:40.471Z,65.37
2023-03-06T12:52:40.475Z,65.82
2023-03-06T12:53:42.264Z,65.11
2023-03-06T12:54:40.483Z,67.23
2023-03-06T12:55:40.444Z,66.01
2023-03-06T12:56:40.432Z,66.53
2023-03-06T12:57:40.419Z,70.83